sensor_id;sensor_type;location;lat;lon;timestamp;temperature;humidity
16625;DHT22;8426;48.496;9.098;2022-07-23T00:03:32;21.20;99.90
16625;DHT22;8426;48.496;9.098;2022-07-23T00:08:37;21.10;99.90
16625;DHT22;8426;48.496;9.098;2022-07-23T00:13:40;21.00;99.90
16625;DHT22;8426;48.496;9.098;2022-07-23T00:18:45;20.70;99.90
16625;DHT22;8426;48.496;9.098;2022-07-23T00:23:50;20.50;99.90
16625;DHT22;8426;48.496;9.098;2022-07-23T00:28:59;20.50;99.90
16625;DHT22;8426;48.496;9.098;2022-07-23T00:34:03;20.40;99.90
16625;DHT22;8426;48.496;9.098;2022-07-23T00:39:07;20.30;99.90
16625;DHT22;8426;48.496;9.098;2022-07-23T00:44:15;20.30;99.90
16625;DHT22;8426;48.496;9.098;2022-07-23T00:49:20;20.30;99.90
16625;DHT22;8426;48.496;9.098;2022-07-23T00:54:26;20.30;99.90
16625;DHT22;8426;48.496;9.098;2022-07-23T00:59:32;20.30;99.90
16625;DHT22;8426;48.496;9.098;2022-07-23T01:04:41;20.40;99.90
16625;DHT22;8426;48.496;9.098;2022-07-23T01:09:46;20.40;99.90
16625;DHT22;8426;48.496;9.098;2022-07-23T01:14:54;20.30;99.90
16625;DHT22;8426;48.496;9.098;2022-07-23T01:20:01;20.20;99.90
16625;DHT22;8426;48.496;9.098;2022-07-23T01:25:07;20.10;99.90
16625;DHT22;8426;48.496;9.098;2022-07-23T01:30:12;20.00;99.90
16625;DHT22;8426;48.496;9.098;2022-07-23T01:35:22;20.10;99.90
16625;DHT22;8426;48.496;9.098;2022-07-23T01:40:27;20.10;99.90
16625;DHT22;8426;48.496;9.098;2022-07-23T01:45:34;20.20;99.90
16625;DHT22;8426;48.496;9.098;2022-07-23T01:50:49;20.20;99.90
16625;DHT22;8426;48.496;9.098;2022-07-23T01:56:01;20.00;99.90
16625;DHT22;8426;48.496;9.098;2022-07-23T02:01:06;19.90;99.90
16625;DHT22;8426;48.496;9.098;2022-07-23T02:06:15;19.80;99.90
16625;DHT22;8426;48.496;9.098;2022-07-23T02:11:24;19.70;99.90
16625;DHT22;8426;48.496;9.098;2022-07-23T02:16:38;19.50;99.90
16625;DHT22;8426;48.496;9.098;2022-07-23T02:21:49;19.30;99.90
16625;DHT22;8426;48.496;9.098;2022-07-23T02:26:55;19.30;99.90
16625;DHT22;8426;48.496;9.098;2022-07-23T02:31:58;19.40;99.90
16625;DHT22;8426;48.496;9.098;2022-07-23T02:37:11;19.30;99.90
16625;DHT22;8426;48.496;9.098;2022-07-23T02:42:18;19.20;99.90
16625;DHT22;8426;48.496;9.098;2022-07-23T02:47:26;19.10;99.90
16625;DHT22;8426;48.496;9.098;2022-07-23T02:52:29;19.00;99.90
16625;DHT22;8426;48.496;9.098;2022-07-23T02:57:36;19.00;99.90
16625;DHT22;8426;48.496;9.098;2022-07-23T03:02:39;19.10;99.90
16625;DHT22;8426;48.496;9.098;2022-07-23T03:07:55;19.10;99.90
16625;DHT22;8426;48.496;9.098;2022-07-23T03:13:07;19.20;99.90
16625;DHT22;8426;48.496;9.098;2022-07-23T03:18:11;19.10;99.90
16625;DHT22;8426;48.496;9.098;2022-07-23T03:23:16;19.00;99.90
16625;DHT22;8426;48.496;9.098;2022-07-23T03:28:23;18.90;99.90
16625;DHT22;8426;48.496;9.098;2022-07-23T03:33:28;18.80;99.90
16625;DHT22;8426;48.496;9.098;2022-07-23T03:38:33;18.70;99.90
16625;DHT22;8426;48.496;9.098;2022-07-23T03:43:44;18.70;99.90
16625;DHT22;8426;48.496;9.098;2022-07-23T03:48:50;18.50;99.90
16625;DHT22;8426;48.496;9.098;2022-07-23T03:54:09;18.50;99.90
16625;DHT22;8426;48.496;9.098;2022-07-23T03:59:19;18.20;99.90
16625;DHT22;8426;48.496;9.098;2022-07-23T04:04:31;18.10;99.90
16625;DHT22;8426;48.496;9.098;2022-07-23T04:09:37;18.20;99.90
16625;DHT22;8426;48.496;9.098;2022-07-23T04:14:50;18.40;99.90
16625;DHT22;8426;48.496;9.098;2022-07-23T04:19:59;18.60;99.90
16625;DHT22;8426;48.496;9.098;2022-07-23T04:25:04;18.60;99.90
16625;DHT22;8426;48.496;9.098;2022-07-23T04:30:10;18.60;99.90
16625;DHT22;8426;48.496;9.098;2022-07-23T04:35:15;18.60;99.90
16625;DHT22;8426;48.496;9.098;2022-07-23T04:40:19;18.60;99.90
16625;DHT22;8426;48.496;9.098;2022-07-23T04:45:35;18.70;99.90
16625;DHT22;8426;48.496;9.098;2022-07-23T04:50:38;19.00;99.90
16625;DHT22;8426;48.496;9.098;2022-07-23T04:55:43;19.50;99.90
16625;DHT22;8426;48.496;9.098;2022-07-23T05:00:48;19.90;99.90
16625;DHT22;8426;48.496;9.098;2022-07-23T05:05:53;20.00;99.90
16625;DHT22;8426;48.496;9.098;2022-07-23T05:11:03;20.00;99.90
16625;DHT22;8426;48.496;9.098;2022-07-23T05:16:13;20.10;99.90
16625;DHT22;8426;48.496;9.098;2022-07-23T05:21:32;20.30;99.90
16625;DHT22;8426;48.496;9.098;2022-07-23T05:26:35;20.40;99.90
16625;DHT22;8426;48.496;9.098;2022-07-23T05:31:40;20.30;99.90
16625;DHT22;8426;48.496;9.098;2022-07-23T05:36:44;20.20;99.90
16625;DHT22;8426;48.496;9.098;2022-07-23T05:41:48;20.40;99.90
16625;DHT22;8426;48.496;9.098;2022-07-23T05:47:07;20.60;99.90
16625;DHT22;8426;48.496;9.098;2022-07-23T05:52:15;20.90;99.90
16625;DHT22;8426;48.496;9.098;2022-07-23T05:57:18;21.20;99.90
16625;DHT22;8426;48.496;9.098;2022-07-23T06:02:39;21.90;99.90
16625;DHT22;8426;48.496;9.098;2022-07-23T06:07:42;25.30;99.90
16625;DHT22;8426;48.496;9.098;2022-07-23T06:12:46;28.70;99.90
16625;DHT22;8426;48.496;9.098;2022-07-23T06:17:50;29.30;99.90
16625;DHT22;8426;48.496;9.098;2022-07-23T06:23:00;31.00;99.90
16625;DHT22;8426;48.496;9.098;2022-07-23T06:28:10;32.50;99.90
16625;DHT22;8426;48.496;9.098;2022-07-23T06:33:17;33.40;99.10
16625;DHT22;8426;48.496;9.098;2022-07-23T06:38:22;33.20;96.80
16625;DHT22;8426;48.496;9.098;2022-07-23T06:43:27;34.30;95.70
16625;DHT22;8426;48.496;9.098;2022-07-23T06:48:34;35.00;94.40
16625;DHT22;8426;48.496;9.098;2022-07-23T06:53:48;35.20;92.30
16625;DHT22;8426;48.496;9.098;2022-07-23T06:59:01;36.30;91.50
16625;DHT22;8426;48.496;9.098;2022-07-23T07:04:12;36.00;90.10
16625;DHT22;8426;48.496;9.098;2022-07-23T07:09:15;35.70;92.50
16625;DHT22;8426;48.496;9.098;2022-07-23T07:14:24;34.60;91.80
16625;DHT22;8426;48.496;9.098;2022-07-23T07:19:33;36.90;90.70
16625;DHT22;8426;48.496;9.098;2022-07-23T07:24:49;35.40;90.30
16625;DHT22;8426;48.496;9.098;2022-07-23T07:29:52;34.40;89.40
16625;DHT22;8426;48.496;9.098;2022-07-23T07:34:58;32.30;92.20
16625;DHT22;8426;48.496;9.098;2022-07-23T07:40:02;32.10;92.70
16625;DHT22;8426;48.496;9.098;2022-07-23T07:45:07;33.60;90.50
16625;DHT22;8426;48.496;9.098;2022-07-23T07:50:12;34.30;88.50
16625;DHT22;8426;48.496;9.098;2022-07-23T07:55:17;31.80;90.80
16625;DHT22;8426;48.496;9.098;2022-07-23T08:00:26;29.80;93.20
16625;DHT22;8426;48.496;9.098;2022-07-23T08:05:31;28.50;95.20
16625;DHT22;8426;48.496;9.098;2022-07-23T08:10:37;28.10;96.20
16625;DHT22;8426;48.496;9.098;2022-07-23T08:15:41;28.00;97.30
16625;DHT22;8426;48.496;9.098;2022-07-23T08:21:01;28.00;97.10
16625;DHT22;8426;48.496;9.098;2022-07-23T08:26:11;28.10;97.80
16625;DHT22;8426;48.496;9.098;2022-07-23T08:31:15;30.20;96.10
16625;DHT22;8426;48.496;9.098;2022-07-23T08:36:21;33.50;91.90
16625;DHT22;8426;48.496;9.098;2022-07-23T08:41:26;34.80;90.30
16625;DHT22;8426;48.496;9.098;2022-07-23T08:46:36;34.20;90.00
16625;DHT22;8426;48.496;9.098;2022-07-23T08:51:48;32.50;91.30
16625;DHT22;8426;48.496;9.098;2022-07-23T08:56:51;31.30;92.80
16625;DHT22;8426;48.496;9.098;2022-07-23T09:01:55;30.20;94.00
16625;DHT22;8426;48.496;9.098;2022-07-23T09:07:01;29.30;95.20
16625;DHT22;8426;48.496;9.098;2022-07-23T09:12:07;30.60;93.30
16625;DHT22;8426;48.496;9.098;2022-07-23T09:17:17;30.40;94.40
16625;DHT22;8426;48.496;9.098;2022-07-23T09:22:27;30.40;94.10
16625;DHT22;8426;48.496;9.098;2022-07-23T09:27:56;29.90;94.30
16625;DHT22;8426;48.496;9.098;2022-07-23T09:33:08;29.90;95.90
16625;DHT22;8426;48.496;9.098;2022-07-23T09:38:13;30.30;94.60
16625;DHT22;8426;48.496;9.098;2022-07-23T09:43:29;30.40;94.90
16625;DHT22;8426;48.496;9.098;2022-07-23T09:48:38;32.90;92.00
16625;DHT22;8426;48.496;9.098;2022-07-23T09:53:43;33.10;90.30
16625;DHT22;8426;48.496;9.098;2022-07-23T09:58:50;31.70;92.10
16625;DHT22;8426;48.496;9.098;2022-07-23T10:03:55;31.10;93.40
16625;DHT22;8426;48.496;9.098;2022-07-23T10:09:02;30.70;94.30
16625;DHT22;8426;48.496;9.098;2022-07-23T10:14:07;30.60;94.40
16625;DHT22;8426;48.496;9.098;2022-07-23T10:19:12;30.30;93.50
16625;DHT22;8426;48.496;9.098;2022-07-23T10:24:28;30.80;93.20
16625;DHT22;8426;48.496;9.098;2022-07-23T10:29:42;30.80;93.70
16625;DHT22;8426;48.496;9.098;2022-07-23T10:34:55;30.40;94.40
16625;DHT22;8426;48.496;9.098;2022-07-23T10:40:13;30.20;93.60
16625;DHT22;8426;48.496;9.098;2022-07-23T10:45:29;30.20;94.70
16625;DHT22;8426;48.496;9.098;2022-07-23T10:50:34;30.20;95.50
16625;DHT22;8426;48.496;9.098;2022-07-23T10:55:51;30.20;95.20
16625;DHT22;8426;48.496;9.098;2022-07-23T11:01:33;30.60;94.20
16625;DHT22;8426;48.496;9.098;2022-07-23T11:07:07;31.10;94.40
16625;DHT22;8426;48.496;9.098;2022-07-23T11:12:35;32.20;93.50
16625;DHT22;8426;48.496;9.098;2022-07-23T11:17:59;32.20;92.20
16625;DHT22;8426;48.496;9.098;2022-07-23T11:23:03;32.00;92.30
16625;DHT22;8426;48.496;9.098;2022-07-23T11:28:15;32.30;92.90
16625;DHT22;8426;48.496;9.098;2022-07-23T11:33:20;31.80;92.60
16625;DHT22;8426;48.496;9.098;2022-07-23T11:38:26;32.00;92.70
16625;DHT22;8426;48.496;9.098;2022-07-23T11:43:32;31.60;92.30
16625;DHT22;8426;48.496;9.098;2022-07-23T11:48:37;30.80;93.00
16625;DHT22;8426;48.496;9.098;2022-07-23T11:53:45;31.30;93.60
16625;DHT22;8426;48.496;9.098;2022-07-23T11:58:55;31.30;92.10
16625;DHT22;8426;48.496;9.098;2022-07-23T12:04:01;30.10;93.60
16625;DHT22;8426;48.496;9.098;2022-07-23T12:09:07;29.40;94.10
16625;DHT22;8426;48.496;9.098;2022-07-23T12:14:19;29.10;95.50
16625;DHT22;8426;48.496;9.098;2022-07-23T12:19:22;28.70;93.60
16625;DHT22;8426;48.496;9.098;2022-07-23T12:24:26;29.50;95.10
16625;DHT22;8426;48.496;9.098;2022-07-23T12:29:35;30.80;92.60
16625;DHT22;8426;48.496;9.098;2022-07-23T12:34:38;30.00;92.90
16625;DHT22;8426;48.496;9.098;2022-07-23T12:39:42;29.60;92.90
16625;DHT22;8426;48.496;9.098;2022-07-23T12:45:06;30.70;92.30
16625;DHT22;8426;48.496;9.098;2022-07-23T12:50:32;31.30;90.90
16625;DHT22;8426;48.496;9.098;2022-07-23T12:55:37;30.90;92.00
16625;DHT22;8426;48.496;9.098;2022-07-23T13:01:04;30.40;92.10
16625;DHT22;8426;48.496;9.098;2022-07-23T13:06:10;29.60;91.80
16625;DHT22;8426;48.496;9.098;2022-07-23T13:11:21;29.80;92.80
16625;DHT22;8426;48.496;9.098;2022-07-23T13:16:28;29.80;93.20
16625;DHT22;8426;48.496;9.098;2022-07-23T13:21:35;29.30;92.20
16625;DHT22;8426;48.496;9.098;2022-07-23T13:26:39;29.90;92.70
16625;DHT22;8426;48.496;9.098;2022-07-23T13:31:43;30.00;92.20
16625;DHT22;8426;48.496;9.098;2022-07-23T13:36:47;30.30;92.60
16625;DHT22;8426;48.496;9.098;2022-07-23T13:41:51;30.40;92.10
16625;DHT22;8426;48.496;9.098;2022-07-23T13:46:56;30.20;91.80
16625;DHT22;8426;48.496;9.098;2022-07-23T13:52:03;29.90;91.90
16625;DHT22;8426;48.496;9.098;2022-07-23T13:57:08;29.40;92.70
16625;DHT22;8426;48.496;9.098;2022-07-23T14:02:16;28.70;92.10
16625;DHT22;8426;48.496;9.098;2022-07-23T14:07:23;28.30;94.10
16625;DHT22;8426;48.496;9.098;2022-07-23T14:12:37;28.30;94.70
16625;DHT22;8426;48.496;9.098;2022-07-23T14:17:45;28.60;94.50
16625;DHT22;8426;48.496;9.098;2022-07-23T14:23:06;28.70;95.10
16625;DHT22;8426;48.496;9.098;2022-07-23T14:28:14;28.30;94.90
16625;DHT22;8426;48.496;9.098;2022-07-23T14:33:18;28.10;94.70
16625;DHT22;8426;48.496;9.098;2022-07-23T14:38:23;27.90;95.10
16625;DHT22;8426;48.496;9.098;2022-07-23T14:43:27;27.90;95.30
16625;DHT22;8426;48.496;9.098;2022-07-23T14:48:40;28.20;96.10
16625;DHT22;8426;48.496;9.098;2022-07-23T14:53:48;29.10;93.60
16625;DHT22;8426;48.496;9.098;2022-07-23T14:58:56;29.70;92.80
16625;DHT22;8426;48.496;9.098;2022-07-23T15:04:05;29.70;92.60
16625;DHT22;8426;48.496;9.098;2022-07-23T15:09:28;29.70;93.20
16625;DHT22;8426;48.496;9.098;2022-07-23T15:14:35;29.70;92.20
16625;DHT22;8426;48.496;9.098;2022-07-23T15:19:42;29.70;91.70
16625;DHT22;8426;48.496;9.098;2022-07-23T15:24:51;29.80;92.10
16625;DHT22;8426;48.496;9.098;2022-07-23T15:30:02;29.90;92.10
16625;DHT22;8426;48.496;9.098;2022-07-23T15:35:10;29.80;92.10
16625;DHT22;8426;48.496;9.098;2022-07-23T15:40:14;29.80;91.40
16625;DHT22;8426;48.496;9.098;2022-07-23T15:45:21;29.60;92.00
16625;DHT22;8426;48.496;9.098;2022-07-23T15:50:27;29.40;92.50
16625;DHT22;8426;48.496;9.098;2022-07-23T15:55:35;28.60;92.90
16625;DHT22;8426;48.496;9.098;2022-07-23T16:01:04;27.90;94.30
16625;DHT22;8426;48.496;9.098;2022-07-23T16:06:25;27.80;94.30
16625;DHT22;8426;48.496;9.098;2022-07-23T16:11:32;28.00;94.30
16625;DHT22;8426;48.496;9.098;2022-07-23T16:16:42;28.10;93.90
16625;DHT22;8426;48.496;9.098;2022-07-23T16:21:50;28.30;93.80
16625;DHT22;8426;48.496;9.098;2022-07-23T16:26:56;28.40;93.80
16625;DHT22;8426;48.496;9.098;2022-07-23T16:32:06;28.20;94.10
16625;DHT22;8426;48.496;9.098;2022-07-23T16:37:14;28.10;93.30
16625;DHT22;8426;48.496;9.098;2022-07-23T16:42:19;28.20;93.10
16625;DHT22;8426;48.496;9.098;2022-07-23T16:47:24;28.10;93.80
16625;DHT22;8426;48.496;9.098;2022-07-23T16:52:29;28.00;93.00
16625;DHT22;8426;48.496;9.098;2022-07-23T16:57:33;27.80;93.90
16625;DHT22;8426;48.496;9.098;2022-07-23T17:02:38;27.60;94.40
16625;DHT22;8426;48.496;9.098;2022-07-23T17:07:43;27.70;93.60
16625;DHT22;8426;48.496;9.098;2022-07-23T17:12:47;27.70;94.00
16625;DHT22;8426;48.496;9.098;2022-07-23T17:17:52;27.40;94.70
16625;DHT22;8426;48.496;9.098;2022-07-23T17:22:57;27.40;93.60
16625;DHT22;8426;48.496;9.098;2022-07-23T17:28:01;27.60;93.30
16625;DHT22;8426;48.496;9.098;2022-07-23T17:33:04;27.50;93.50
16625;DHT22;8426;48.496;9.098;2022-07-23T17:38:18;27.50;94.20
16625;DHT22;8426;48.496;9.098;2022-07-23T17:43:21;27.20;93.50
16625;DHT22;8426;48.496;9.098;2022-07-23T17:48:26;27.10;93.90
16625;DHT22;8426;48.496;9.098;2022-07-23T17:53:33;26.80;94.10
16625;DHT22;8426;48.496;9.098;2022-07-23T17:58:37;26.70;94.90
16625;DHT22;8426;48.496;9.098;2022-07-23T18:03:44;26.60;95.00
16625;DHT22;8426;48.496;9.098;2022-07-23T18:08:50;26.60;94.90
16625;DHT22;8426;48.496;9.098;2022-07-23T18:13:54;26.60;95.30
16625;DHT22;8426;48.496;9.098;2022-07-23T18:19:05;26.30;95.20
16625;DHT22;8426;48.496;9.098;2022-07-23T18:24:10;25.90;96.00
16625;DHT22;8426;48.496;9.098;2022-07-23T18:29:19;25.50;97.00
16625;DHT22;8426;48.496;9.098;2022-07-23T18:34:23;25.20;97.00
16625;DHT22;8426;48.496;9.098;2022-07-23T18:39:28;25.00;97.60
16625;DHT22;8426;48.496;9.098;2022-07-23T18:44:36;24.80;98.20
16625;DHT22;8426;48.496;9.098;2022-07-23T18:49:40;24.80;98.10
16625;DHT22;8426;48.496;9.098;2022-07-23T18:54:46;24.70;98.40
16625;DHT22;8426;48.496;9.098;2022-07-23T18:59:49;24.60;98.90
16625;DHT22;8426;48.496;9.098;2022-07-23T19:04:54;24.50;99.10
16625;DHT22;8426;48.496;9.098;2022-07-23T19:09:59;24.40;99.60
16625;DHT22;8426;48.496;9.098;2022-07-23T19:15:04;24.40;99.10
16625;DHT22;8426;48.496;9.098;2022-07-23T19:20:21;24.30;99.40
16625;DHT22;8426;48.496;9.098;2022-07-23T19:25:31;24.20;99.60
16625;DHT22;8426;48.496;9.098;2022-07-23T19:30:35;24.00;99.90
16625;DHT22;8426;48.496;9.098;2022-07-23T19:35:47;23.80;99.90
16625;DHT22;8426;48.496;9.098;2022-07-23T19:40:53;23.60;99.90
16625;DHT22;8426;48.496;9.098;2022-07-23T19:45:57;23.30;99.90
16625;DHT22;8426;48.496;9.098;2022-07-23T19:51:01;23.10;99.90
16625;DHT22;8426;48.496;9.098;2022-07-23T19:56:13;22.80;99.90
16625;DHT22;8426;48.496;9.098;2022-07-23T20:01:18;22.60;99.90
16625;DHT22;8426;48.496;9.098;2022-07-23T20:06:28;22.50;99.90
16625;DHT22;8426;48.496;9.098;2022-07-23T20:11:34;22.30;99.90
16625;DHT22;8426;48.496;9.098;2022-07-23T20:16:37;22.30;99.90
16625;DHT22;8426;48.496;9.098;2022-07-23T20:21:42;22.20;99.90
16625;DHT22;8426;48.496;9.098;2022-07-23T20:26:54;22.20;99.90
16625;DHT22;8426;48.496;9.098;2022-07-23T20:31:58;22.20;99.90
16625;DHT22;8426;48.496;9.098;2022-07-23T20:37:07;22.10;99.90
16625;DHT22;8426;48.496;9.098;2022-07-23T20:42:13;22.00;99.90
16625;DHT22;8426;48.496;9.098;2022-07-23T20:47:22;21.90;99.90
16625;DHT22;8426;48.496;9.098;2022-07-23T20:52:26;21.70;99.90
16625;DHT22;8426;48.496;9.098;2022-07-23T20:57:38;21.60;99.90
16625;DHT22;8426;48.496;9.098;2022-07-23T21:02:42;21.60;99.90
16625;DHT22;8426;48.496;9.098;2022-07-23T21:07:46;21.50;99.90
16625;DHT22;8426;48.496;9.098;2022-07-23T21:12:51;21.40;99.90
16625;DHT22;8426;48.496;9.098;2022-07-23T21:17:54;21.40;99.90
16625;DHT22;8426;48.496;9.098;2022-07-23T21:22:58;21.30;99.90
16625;DHT22;8426;48.496;9.098;2022-07-23T21:28:04;21.40;99.90
16625;DHT22;8426;48.496;9.098;2022-07-23T21:33:08;21.50;99.90
16625;DHT22;8426;48.496;9.098;2022-07-23T21:38:13;21.40;99.90
16625;DHT22;8426;48.496;9.098;2022-07-23T21:43:19;21.30;99.90
16625;DHT22;8426;48.496;9.098;2022-07-23T21:48:28;21.10;99.90
16625;DHT22;8426;48.496;9.098;2022-07-23T21:53:31;21.00;99.90
16625;DHT22;8426;48.496;9.098;2022-07-23T21:58:45;20.90;99.90
16625;DHT22;8426;48.496;9.098;2022-07-23T22:03:51;20.90;99.90
16625;DHT22;8426;48.496;9.098;2022-07-23T22:09:02;20.90;99.90
16625;DHT22;8426;48.496;9.098;2022-07-23T22:14:08;20.70;99.90
16625;DHT22;8426;48.496;9.098;2022-07-23T22:19:11;20.60;99.90
16625;DHT22;8426;48.496;9.098;2022-07-23T22:24:18;20.40;99.90
16625;DHT22;8426;48.496;9.098;2022-07-23T22:29:23;20.20;99.90
16625;DHT22;8426;48.496;9.098;2022-07-23T22:34:26;20.00;99.90
16625;DHT22;8426;48.496;9.098;2022-07-23T22:39:41;19.90;99.90
16625;DHT22;8426;48.496;9.098;2022-07-23T22:44:45;19.70;99.90
16625;DHT22;8426;48.496;9.098;2022-07-23T22:49:49;19.50;99.90
16625;DHT22;8426;48.496;9.098;2022-07-23T22:54:52;19.60;99.90
16625;DHT22;8426;48.496;9.098;2022-07-23T22:59:57;19.40;99.90
16625;DHT22;8426;48.496;9.098;2022-07-23T23:05:13;19.20;99.90
16625;DHT22;8426;48.496;9.098;2022-07-23T23:10:19;19.20;99.90
16625;DHT22;8426;48.496;9.098;2022-07-23T23:15:26;19.30;99.90
16625;DHT22;8426;48.496;9.098;2022-07-23T23:20:30;19.40;99.90
16625;DHT22;8426;48.496;9.098;2022-07-23T23:25:36;19.60;99.90
16625;DHT22;8426;48.496;9.098;2022-07-23T23:31:02;19.60;99.90
16625;DHT22;8426;48.496;9.098;2022-07-23T23:36:06;19.60;99.90
16625;DHT22;8426;48.496;9.098;2022-07-23T23:41:10;19.40;99.90
16625;DHT22;8426;48.496;9.098;2022-07-23T23:46:14;19.30;99.90
16625;DHT22;8426;48.496;9.098;2022-07-23T23:51:28;19.20;99.90
16625;DHT22;8426;48.496;9.098;2022-07-23T23:56:38;19.20;99.90
